sensor_id;sensor_type;location;lat;lon;timestamp;pressure;altitude;pressure_sealevel;temperature;humidity
45071;BME280;30836;48.906;9.140;2022-07-01T00:00:32;987.03;;;20.98;55.93
45071;BME280;30836;48.906;9.140;2022-07-01T00:01:33;987.01;;;20.96;55.75
45071;BME280;30836;48.906;9.140;2022-07-01T00:02:33;987.03;;;20.95;55.93
45071;BME280;30836;48.906;9.140;2022-07-01T00:03:34;987.09;;;20.91;56.06
45071;BME280;30836;48.906;9.140;2022-07-01T00:04:34;987.09;;;20.86;55.98
45071;BME280;30836;48.906;9.140;2022-07-01T00:05:35;987.07;;;20.76;56.25
45071;BME280;30836;48.906;9.140;2022-07-01T00:06:35;987.11;;;20.65;56.26
45071;BME280;30836;48.906;9.140;2022-07-01T00:07:36;987.13;;;20.65;56.17
45071;BME280;30836;48.906;9.140;2022-07-01T00:08:37;987.15;;;20.63;56.52
45071;BME280;30836;48.906;9.140;2022-07-01T00:09:38;987.19;;;20.57;56.65
45071;BME280;30836;48.906;9.140;2022-07-01T00:10:38;987.27;;;20.47;57.07
45071;BME280;30836;48.906;9.140;2022-07-01T00:11:39;987.31;;;20.37;57.46
45071;BME280;30836;48.906;9.140;2022-07-01T00:12:39;987.33;;;20.29;58.01
45071;BME280;30836;48.906;9.140;2022-07-01T00:13:40;987.37;;;20.23;58.06
45071;BME280;30836;48.906;9.140;2022-07-01T00:14:40;987.33;;;20.19;57.98
45071;BME280;30836;48.906;9.140;2022-07-01T00:15:40;987.33;;;20.15;58.25
45071;BME280;30836;48.906;9.140;2022-07-01T00:16:41;987.39;;;20.13;58.40
45071;BME280;30836;48.906;9.140;2022-07-01T00:17:42;987.37;;;19.99;58.91
45071;BME280;30836;48.906;9.140;2022-07-01T00:18:43;987.31;;;19.72;59.75
45071;BME280;30836;48.906;9.140;2022-07-01T00:19:43;987.29;;;19.46;60.41
45071;BME280;30836;48.906;9.140;2022-07-01T00:20:44;987.27;;;19.28;60.63
45071;BME280;30836;48.906;9.140;2022-07-01T00:21:44;987.17;;;19.19;61.22
45071;BME280;30836;48.906;9.140;2022-07-01T00:22:45;987.15;;;19.11;61.26
45071;BME280;30836;48.906;9.140;2022-07-01T00:23:46;987.15;;;19.06;61.32
45071;BME280;30836;48.906;9.140;2022-07-01T00:24:46;987.17;;;19.00;61.47
45071;BME280;30836;48.906;9.140;2022-07-01T00:25:47;987.19;;;18.90;61.68
45071;BME280;30836;48.906;9.140;2022-07-01T00:26:47;987.13;;;18.81;61.72
45071;BME280;30836;48.906;9.140;2022-07-01T00:27:48;987.13;;;18.77;61.83
45071;BME280;30836;48.906;9.140;2022-07-01T00:28:48;987.11;;;18.75;61.88
45071;BME280;30836;48.906;9.140;2022-07-01T00:29:49;987.15;;;18.75;61.98
45071;BME280;30836;48.906;9.140;2022-07-01T00:30:49;987.17;;;18.76;61.87
45071;BME280;30836;48.906;9.140;2022-07-01T00:31:49;987.29;;;18.76;62.07
45071;BME280;30836;48.906;9.140;2022-07-01T00:32:50;987.39;;;18.72;62.45
45071;BME280;30836;48.906;9.140;2022-07-01T00:33:50;987.39;;;18.65;62.62
45071;BME280;30836;48.906;9.140;2022-07-01T00:34:51;987.45;;;18.59;62.76
45071;BME280;30836;48.906;9.140;2022-07-01T00:35:51;987.47;;;18.56;62.86
45071;BME280;30836;48.906;9.140;2022-07-01T00:36:52;987.43;;;18.52;63.16
45071;BME280;30836;48.906;9.140;2022-07-01T00:37:52;987.41;;;18.49;63.22
45071;BME280;30836;48.906;9.140;2022-07-01T00:38:52;987.39;;;18.49;63.36
45071;BME280;30836;48.906;9.140;2022-07-01T00:39:53;987.41;;;18.48;63.35
45071;BME280;30836;48.906;9.140;2022-07-01T00:40:54;987.45;;;18.46;63.47
45071;BME280;30836;48.906;9.140;2022-07-01T00:41:57;987.49;;;18.41;63.57
45071;BME280;30836;48.906;9.140;2022-07-01T00:42:58;987.47;;;18.32;63.81
45071;BME280;30836;48.906;9.140;2022-07-01T00:43:59;987.47;;;18.21;63.89
45071;BME280;30836;48.906;9.140;2022-07-01T00:44:59;987.51;;;18.11;64.33
45071;BME280;30836;48.906;9.140;2022-07-01T00:45:59;987.53;;;18.04;64.49
45071;BME280;30836;48.906;9.140;2022-07-01T00:47:01;987.51;;;17.99;64.52
45071;BME280;30836;48.906;9.140;2022-07-01T00:48:03;987.49;;;17.95;64.68
45071;BME280;30836;48.906;9.140;2022-07-01T00:49:04;987.45;;;17.95;64.71
45071;BME280;30836;48.906;9.140;2022-07-01T00:50:07;987.47;;;17.98;64.51
45071;BME280;30836;48.906;9.140;2022-07-01T00:51:10;987.43;;;18.02;64.70
45071;BME280;30836;48.906;9.140;2022-07-01T00:52:11;987.39;;;18.02;64.74
45071;BME280;30836;48.906;9.140;2022-07-01T00:53:12;987.35;;;18.02;64.67
45071;BME280;30836;48.906;9.140;2022-07-01T00:54:13;987.33;;;18.01;64.68
45071;BME280;30836;48.906;9.140;2022-07-01T00:55:15;987.29;;;18.01;64.70
45071;BME280;30836;48.906;9.140;2022-07-01T00:56:16;987.29;;;18.00;64.89
45071;BME280;30836;48.906;9.140;2022-07-01T00:57:18;987.19;;;18.03;64.46
45071;BME280;30836;48.906;9.140;2022-07-01T00:58:18;987.19;;;18.15;63.88
45071;BME280;30836;48.906;9.140;2022-07-01T00:59:19;987.31;;;18.34;63.30
45071;BME280;30836;48.906;9.140;2022-07-01T01:00:19;987.33;;;18.51;62.77
45071;BME280;30836;48.906;9.140;2022-07-01T01:01:20;987.27;;;18.62;62.59
45071;BME280;30836;48.906;9.140;2022-07-01T01:02:20;987.19;;;18.71;62.31
45071;BME280;30836;48.906;9.140;2022-07-01T01:03:21;987.19;;;18.83;62.03
45071;BME280;30836;48.906;9.140;2022-07-01T01:04:21;987.17;;;18.92;61.87
45071;BME280;30836;48.906;9.140;2022-07-01T01:05:22;987.27;;;18.97;61.64
45071;BME280;30836;48.906;9.140;2022-07-01T01:06:22;987.29;;;19.03;61.58
45071;BME280;30836;48.906;9.140;2022-07-01T01:07:23;987.33;;;19.05;61.56
45071;BME280;30836;48.906;9.140;2022-07-01T01:08:24;987.31;;;19.03;61.63
45071;BME280;30836;48.906;9.140;2022-07-01T01:08:34;987.29;;;18.99;61.57
45071;BME280;30836;48.906;9.140;2022-07-01T01:09:35;987.27;;;18.98;61.82
45071;BME280;30836;48.906;9.140;2022-07-01T01:10:36;987.19;;;18.91;62.40
45071;BME280;30836;48.906;9.140;2022-07-01T01:11:37;987.17;;;18.78;62.90
45071;BME280;30836;48.906;9.140;2022-07-01T01:12:38;987.11;;;18.73;62.76
45071;BME280;30836;48.906;9.140;2022-07-01T01:13:40;987.09;;;18.74;62.68
45071;BME280;30836;48.906;9.140;2022-07-01T01:15:46;987.03;;;18.86;62.16
45071;BME280;30836;48.906;9.140;2022-07-01T01:16:47;987.07;;;18.94;61.88
45071;BME280;30836;48.906;9.140;2022-07-01T01:17:47;987.03;;;18.88;62.58
45071;BME280;30836;48.906;9.140;2022-07-01T01:18:48;987.03;;;18.71;63.33
45071;BME280;30836;48.906;9.140;2022-07-01T01:19:49;986.99;;;18.48;63.80
45071;BME280;30836;48.906;9.140;2022-07-01T01:20:54;987.01;;;18.31;63.97
45071;BME280;30836;48.906;9.140;2022-07-01T01:21:55;987.05;;;18.19;64.17
45071;BME280;30836;48.906;9.140;2022-07-01T01:22:55;987.01;;;18.06;64.45
45071;BME280;30836;48.906;9.140;2022-07-01T01:23:56;986.99;;;17.88;65.06
45071;BME280;30836;48.906;9.140;2022-07-01T01:24:57;987.01;;;17.77;64.96
45071;BME280;30836;48.906;9.140;2022-07-01T01:25:58;987.01;;;17.79;64.60
45071;BME280;30836;48.906;9.140;2022-07-01T01:26:58;987.01;;;17.87;64.17
45071;BME280;30836;48.906;9.140;2022-07-01T01:27:59;987.03;;;17.95;63.77
45071;BME280;30836;48.906;9.140;2022-07-01T01:29:01;986.97;;;18.06;63.44
45071;BME280;30836;48.906;9.140;2022-07-01T01:30:02;986.97;;;18.16;63.18
45071;BME280;30836;48.906;9.140;2022-07-01T01:31:06;986.99;;;18.26;63.04
45071;BME280;30836;48.906;9.140;2022-07-01T01:32:07;987.01;;;18.31;62.92
45071;BME280;30836;48.906;9.140;2022-07-01T01:33:07;986.99;;;18.37;62.53
45071;BME280;30836;48.906;9.140;2022-07-01T01:34:08;986.95;;;18.39;62.60
45071;BME280;30836;48.906;9.140;2022-07-01T01:35:09;986.95;;;18.39;62.37
45071;BME280;30836;48.906;9.140;2022-07-01T01:36:10;986.99;;;18.42;62.17
45071;BME280;30836;48.906;9.140;2022-07-01T01:37:11;986.97;;;18.46;61.94
45071;BME280;30836;48.906;9.140;2022-07-01T01:38:11;986.95;;;18.49;61.75
45071;BME280;30836;48.906;9.140;2022-07-01T01:39:12;986.91;;;18.55;61.43
45071;BME280;30836;48.906;9.140;2022-07-01T01:40:12;986.87;;;18.66;61.13
45071;BME280;30836;48.906;9.140;2022-07-01T01:41:13;986.85;;;18.75;60.96
45071;BME280;30836;48.906;9.140;2022-07-01T01:42:13;986.84;;;18.76;60.95
45071;BME280;30836;48.906;9.140;2022-07-01T01:43:14;986.82;;;18.76;60.94
45071;BME280;30836;48.906;9.140;2022-07-01T01:44:14;986.82;;;18.78;60.82
45071;BME280;30836;48.906;9.140;2022-07-01T01:45:15;986.80;;;18.79;60.55
45071;BME280;30836;48.906;9.140;2022-07-01T01:46:15;986.84;;;18.83;60.47
45071;BME280;30836;48.906;9.140;2022-07-01T01:47:16;986.82;;;18.89;60.31
45071;BME280;30836;48.906;9.140;2022-07-01T01:48:16;986.82;;;18.91;60.22
45071;BME280;30836;48.906;9.140;2022-07-01T01:49:17;986.85;;;18.95;60.12
45071;BME280;30836;48.906;9.140;2022-07-01T01:50:17;986.84;;;19.03;59.83
45071;BME280;30836;48.906;9.140;2022-07-01T01:51:18;986.89;;;19.10;59.93
45071;BME280;30836;48.906;9.140;2022-07-01T01:52:19;986.85;;;19.10;60.17
45071;BME280;30836;48.906;9.140;2022-07-01T01:53:19;986.84;;;19.04;60.49
45071;BME280;30836;48.906;9.140;2022-07-01T01:54:20;986.82;;;19.01;60.32
45071;BME280;30836;48.906;9.140;2022-07-01T01:55:20;986.80;;;19.01;60.33
45071;BME280;30836;48.906;9.140;2022-07-01T01:56:21;986.76;;;19.02;60.41
45071;BME280;30836;48.906;9.140;2022-07-01T01:57:22;986.72;;;18.98;60.72
45071;BME280;30836;48.906;9.140;2022-07-01T01:58:22;986.78;;;18.89;61.29
45071;BME280;30836;48.906;9.140;2022-07-01T01:59:23;986.74;;;18.80;61.44
45071;BME280;30836;48.906;9.140;2022-07-01T02:00:23;986.68;;;18.79;61.32
45071;BME280;30836;48.906;9.140;2022-07-01T02:01:24;986.70;;;18.82;61.09
45071;BME280;30836;48.906;9.140;2022-07-01T02:02:24;986.64;;;18.80;61.41
45071;BME280;30836;48.906;9.140;2022-07-01T02:03:24;986.64;;;18.75;61.58
45071;BME280;30836;48.906;9.140;2022-07-01T02:04:25;986.58;;;18.72;61.74
45071;BME280;30836;48.906;9.140;2022-07-01T02:05:25;986.54;;;18.70;61.69
45071;BME280;30836;48.906;9.140;2022-07-01T02:06:26;986.48;;;18.71;62.04
45071;BME280;30836;48.906;9.140;2022-07-01T02:07:26;986.44;;;18.67;62.03
45071;BME280;30836;48.906;9.140;2022-07-01T02:08:27;986.44;;;18.63;62.37
45071;BME280;30836;48.906;9.140;2022-07-01T02:09:27;986.36;;;18.61;62.22
45071;BME280;30836;48.906;9.140;2022-07-01T02:10:28;986.31;;;18.57;62.70
45071;BME280;30836;48.906;9.140;2022-07-01T02:11:28;986.25;;;18.49;62.76
45071;BME280;30836;48.906;9.140;2022-07-01T02:12:29;986.21;;;18.52;62.48
45071;BME280;30836;48.906;9.140;2022-07-01T02:13:29;986.17;;;18.53;62.15
45071;BME280;30836;48.906;9.140;2022-07-01T02:14:30;986.17;;;18.45;62.94
45071;BME280;30836;48.906;9.140;2022-07-01T02:15:30;986.27;;;18.33;63.17
45071;BME280;30836;48.906;9.140;2022-07-01T02:16:31;986.29;;;18.20;63.67
45071;BME280;30836;48.906;9.140;2022-07-01T02:17:31;986.31;;;18.11;63.61
45071;BME280;30836;48.906;9.140;2022-07-01T02:18:32;986.27;;;18.13;63.28
45071;BME280;30836;48.906;9.140;2022-07-01T02:19:32;986.21;;;18.18;63.45
45071;BME280;30836;48.906;9.140;2022-07-01T02:20:32;986.23;;;18.25;63.25
45071;BME280;30836;48.906;9.140;2022-07-01T02:21:33;986.21;;;18.33;63.00
45071;BME280;30836;48.906;9.140;2022-07-01T02:22:33;986.27;;;18.35;63.35
45071;BME280;30836;48.906;9.140;2022-07-01T02:23:34;986.21;;;18.25;63.54
45071;BME280;30836;48.906;9.140;2022-07-01T02:24:34;986.21;;;18.18;63.63
45071;BME280;30836;48.906;9.140;2022-07-01T02:25:35;986.19;;;18.15;63.73
45071;BME280;30836;48.906;9.140;2022-07-01T02:26:36;986.13;;;18.15;63.69
45071;BME280;30836;48.906;9.140;2022-07-01T02:27:36;986.09;;;18.21;63.38
45071;BME280;30836;48.906;9.140;2022-07-01T02:28:37;986.09;;;18.26;63.37
45071;BME280;30836;48.906;9.140;2022-07-01T02:29:37;986.11;;;18.23;63.83
45071;BME280;30836;48.906;9.140;2022-07-01T02:30:38;986.11;;;18.16;63.81
45071;BME280;30836;48.906;9.140;2022-07-01T02:31:38;986.11;;;18.14;63.63
45071;BME280;30836;48.906;9.140;2022-07-01T02:32:39;986.07;;;18.21;63.33
45071;BME280;30836;48.906;9.140;2022-07-01T02:33:39;986.09;;;18.28;63.28
45071;BME280;30836;48.906;9.140;2022-07-01T02:34:40;986.09;;;18.31;63.26
45071;BME280;30836;48.906;9.140;2022-07-01T02:35:41;986.09;;;18.31;63.39
45071;BME280;30836;48.906;9.140;2022-07-01T02:36:41;986.11;;;18.26;63.73
45071;BME280;30836;48.906;9.140;2022-07-01T02:37:42;986.15;;;18.18;64.00
45071;BME280;30836;48.906;9.140;2022-07-01T02:38:43;986.15;;;18.15;63.85
45071;BME280;30836;48.906;9.140;2022-07-01T02:39:43;986.13;;;18.19;63.69
45071;BME280;30836;48.906;9.140;2022-07-01T02:40:43;986.21;;;18.21;63.87
45071;BME280;30836;48.906;9.140;2022-07-01T02:41:44;986.23;;;18.20;64.03
45071;BME280;30836;48.906;9.140;2022-07-01T02:42:44;986.23;;;18.20;63.94
45071;BME280;30836;48.906;9.140;2022-07-01T02:43:45;986.27;;;18.20;64.14
45071;BME280;30836;48.906;9.140;2022-07-01T02:44:45;986.23;;;18.14;64.11
45071;BME280;30836;48.906;9.140;2022-07-01T02:45:46;986.21;;;18.09;64.22
45071;BME280;30836;48.906;9.140;2022-07-01T02:46:46;986.27;;;18.12;63.95
45071;BME280;30836;48.906;9.140;2022-07-01T02:47:46;986.23;;;18.15;64.00
45071;BME280;30836;48.906;9.140;2022-07-01T02:48:47;986.19;;;18.19;63.67
45071;BME280;30836;48.906;9.140;2022-07-01T02:49:47;986.23;;;18.25;63.51
45071;BME280;30836;48.906;9.140;2022-07-01T02:50:48;986.27;;;18.28;63.51
45071;BME280;30836;48.906;9.140;2022-07-01T02:51:48;986.33;;;18.32;63.29
45071;BME280;30836;48.906;9.140;2022-07-01T02:52:49;986.34;;;18.33;63.36
45071;BME280;30836;48.906;9.140;2022-07-01T02:53:49;986.36;;;18.31;63.06
45071;BME280;30836;48.906;9.140;2022-07-01T02:54:50;986.36;;;18.28;63.03
45071;BME280;30836;48.906;9.140;2022-07-01T02:55:50;986.40;;;18.27;63.06
45071;BME280;30836;48.906;9.140;2022-07-01T02:56:51;986.38;;;18.27;63.23
45071;BME280;30836;48.906;9.140;2022-07-01T02:57:51;986.44;;;18.23;63.12
45071;BME280;30836;48.906;9.140;2022-07-01T02:58:52;986.44;;;18.18;63.55
45071;BME280;30836;48.906;9.140;2022-07-01T02:59:52;986.40;;;18.15;63.47
45071;BME280;30836;48.906;9.140;2022-07-01T03:00:53;986.38;;;18.20;63.07
45071;BME280;30836;48.906;9.140;2022-07-01T03:01:53;986.33;;;18.26;62.92
45071;BME280;30836;48.906;9.140;2022-07-01T03:02:54;986.36;;;18.27;62.84
45071;BME280;30836;48.906;9.140;2022-07-01T03:03:54;986.36;;;18.28;62.94
45071;BME280;30836;48.906;9.140;2022-07-01T03:04:55;986.40;;;18.25;63.02
45071;BME280;30836;48.906;9.140;2022-07-01T03:05:55;986.46;;;18.17;63.24
45071;BME280;30836;48.906;9.140;2022-07-01T03:06:57;986.48;;;18.08;63.32
45071;BME280;30836;48.906;9.140;2022-07-01T03:07:57;986.46;;;18.01;63.55
45071;BME280;30836;48.906;9.140;2022-07-01T03:08:57;986.48;;;18.02;63.28
45071;BME280;30836;48.906;9.140;2022-07-01T03:09:58;986.50;;;18.09;63.10
45071;BME280;30836;48.906;9.140;2022-07-01T03:10:58;986.52;;;18.15;62.92
45071;BME280;30836;48.906;9.140;2022-07-01T03:11:59;986.48;;;18.22;62.82
45071;BME280;30836;48.906;9.140;2022-07-01T03:12:59;986.42;;;18.25;63.08
45071;BME280;30836;48.906;9.140;2022-07-01T03:14:00;986.44;;;18.23;63.20
45071;BME280;30836;48.906;9.140;2022-07-01T03:16:05;986.46;;;18.05;63.49
45071;BME280;30836;48.906;9.140;2022-07-01T03:17:06;986.48;;;18.06;63.25
45071;BME280;30836;48.906;9.140;2022-07-01T03:18:06;986.46;;;18.05;63.59
45071;BME280;30836;48.906;9.140;2022-07-01T03:19:06;986.50;;;18.09;63.03
45071;BME280;30836;48.906;9.140;2022-07-01T03:20:08;986.52;;;18.18;62.91
45071;BME280;30836;48.906;9.140;2022-07-01T03:21:10;986.58;;;18.21;62.88
45071;BME280;30836;48.906;9.140;2022-07-01T03:22:10;986.64;;;18.20;63.28
45071;BME280;30836;48.906;9.140;2022-07-01T03:23:11;986.64;;;18.13;63.68
45071;BME280;30836;48.906;9.140;2022-07-01T03:24:11;986.64;;;18.10;63.32
45071;BME280;30836;48.906;9.140;2022-07-01T03:25:12;986.68;;;18.14;63.26
45071;BME280;30836;48.906;9.140;2022-07-01T03:26:12;986.68;;;18.12;63.37
45071;BME280;30836;48.906;9.140;2022-07-01T03:27:13;986.66;;;18.10;63.33
45071;BME280;30836;48.906;9.140;2022-07-01T03:28:13;986.70;;;18.14;63.18
45071;BME280;30836;48.906;9.140;2022-07-01T03:29:14;986.72;;;18.15;63.26
45071;BME280;30836;48.906;9.140;2022-07-01T03:30:14;986.74;;;18.12;63.23
45071;BME280;30836;48.906;9.140;2022-07-01T03:31:15;986.72;;;18.15;63.38
45071;BME280;30836;48.906;9.140;2022-07-01T03:32:16;986.70;;;18.20;63.07
45071;BME280;30836;48.906;9.140;2022-07-01T03:33:16;986.70;;;18.27;62.91
45071;BME280;30836;48.906;9.140;2022-07-01T03:34:17;986.66;;;18.32;62.57
45071;BME280;30836;48.906;9.140;2022-07-01T03:35:17;986.62;;;18.35;62.33
45071;BME280;30836;48.906;9.140;2022-07-01T03:36:18;986.60;;;18.40;62.36
45071;BME280;30836;48.906;9.140;2022-07-01T03:37:19;986.58;;;18.45;62.11
45071;BME280;30836;48.906;9.140;2022-07-01T03:38:20;986.68;;;18.45;62.18
45071;BME280;30836;48.906;9.140;2022-07-01T03:39:21;986.72;;;18.37;62.44
45071;BME280;30836;48.906;9.140;2022-07-01T03:40:21;986.78;;;18.32;62.58
45071;BME280;30836;48.906;9.140;2022-07-01T03:41:22;986.89;;;18.30;62.57
45071;BME280;30836;48.906;9.140;2022-07-01T03:42:22;986.93;;;18.28;62.69
45071;BME280;30836;48.906;9.140;2022-07-01T03:43:23;986.95;;;18.32;62.22
45071;BME280;30836;48.906;9.140;2022-07-01T03:44:23;986.99;;;18.41;62.06
45071;BME280;30836;48.906;9.140;2022-07-01T03:45:23;987.01;;;18.49;61.98
45071;BME280;30836;48.906;9.140;2022-07-01T03:46:24;987.09;;;18.53;62.05
45071;BME280;30836;48.906;9.140;2022-07-01T03:47:24;987.09;;;18.53;62.08
45071;BME280;30836;48.906;9.140;2022-07-01T03:48:25;987.11;;;18.55;61.86
45071;BME280;30836;48.906;9.140;2022-07-01T03:49:25;987.13;;;18.56;62.02
45071;BME280;30836;48.906;9.140;2022-07-01T03:50:26;987.17;;;18.51;62.26
45071;BME280;30836;48.906;9.140;2022-07-01T03:51:26;987.29;;;18.52;62.21
45071;BME280;30836;48.906;9.140;2022-07-01T03:52:27;987.31;;;18.55;62.01
45071;BME280;30836;48.906;9.140;2022-07-01T03:53:28;987.33;;;18.60;61.78
45071;BME280;30836;48.906;9.140;2022-07-01T03:54:28;987.35;;;18.68;61.67
45071;BME280;30836;48.906;9.140;2022-07-01T03:55:29;987.33;;;18.70;61.88
45071;BME280;30836;48.906;9.140;2022-07-01T03:56:29;987.35;;;18.57;62.62
45071;BME280;30836;48.906;9.140;2022-07-01T03:57:29;987.39;;;18.44;62.40
45071;BME280;30836;48.906;9.140;2022-07-01T03:58:30;987.39;;;18.47;61.98
45071;BME280;30836;48.906;9.140;2022-07-01T03:59:31;987.43;;;18.56;61.81
45071;BME280;30836;48.906;9.140;2022-07-01T04:00:33;987.47;;;18.59;61.98
45071;BME280;30836;48.906;9.140;2022-07-01T04:01:35;987.47;;;18.58;62.01
45071;BME280;30836;48.906;9.140;2022-07-01T04:02:35;987.55;;;18.59;61.85
45071;BME280;30836;48.906;9.140;2022-07-01T04:03:36;987.57;;;18.65;61.49
45071;BME280;30836;48.906;9.140;2022-07-01T04:04:36;987.62;;;18.73;61.23
45071;BME280;30836;48.906;9.140;2022-07-01T04:05:37;987.68;;;18.78;61.21
45071;BME280;30836;48.906;9.140;2022-07-01T04:06:38;987.72;;;18.82;61.30
45071;BME280;30836;48.906;9.140;2022-07-01T04:07:38;987.74;;;18.85;60.97
45071;BME280;30836;48.906;9.140;2022-07-01T04:08:39;987.76;;;18.87;60.99
45071;BME280;30836;48.906;9.140;2022-07-01T04:09:39;987.76;;;18.89;60.73
45071;BME280;30836;48.906;9.140;2022-07-01T04:10:40;987.78;;;18.94;60.54
45071;BME280;30836;48.906;9.140;2022-07-01T04:11:41;987.76;;;19.03;60.29
45071;BME280;30836;48.906;9.140;2022-07-01T04:12:42;987.82;;;19.08;60.30
45071;BME280;30836;48.906;9.140;2022-07-01T04:13:43;987.84;;;19.09;60.08
45071;BME280;30836;48.906;9.140;2022-07-01T04:14:44;987.84;;;19.14;59.95
45071;BME280;30836;48.906;9.140;2022-07-01T04:15:45;987.84;;;19.16;59.79
45071;BME280;30836;48.906;9.140;2022-07-01T04:16:47;987.86;;;19.09;60.13
45071;BME280;30836;48.906;9.140;2022-07-01T04:17:47;987.84;;;18.95;60.61
45071;BME280;30836;48.906;9.140;2022-07-01T04:18:49;987.88;;;18.83;60.65
45071;BME280;30836;48.906;9.140;2022-07-01T04:19:50;987.94;;;18.81;60.53
45071;BME280;30836;48.906;9.140;2022-07-01T04:20:50;987.92;;;18.81;60.62
45071;BME280;30836;48.906;9.140;2022-07-01T04:21:51;988.00;;;18.79;60.73
45071;BME280;30836;48.906;9.140;2022-07-01T04:22:51;988.04;;;18.80;60.62
45071;BME280;30836;48.906;9.140;2022-07-01T04:23:51;988.04;;;18.81;60.85
45071;BME280;30836;48.906;9.140;2022-07-01T04:24:52;988.06;;;18.75;60.87
45071;BME280;30836;48.906;9.140;2022-07-01T04:25:52;988.08;;;18.73;60.81
45071;BME280;30836;48.906;9.140;2022-07-01T04:26:53;988.08;;;18.77;60.83
45071;BME280;30836;48.906;9.140;2022-07-01T04:27:53;988.08;;;18.79;60.83
45071;BME280;30836;48.906;9.140;2022-07-01T04:28:54;988.12;;;18.81;60.67
45071;BME280;30836;48.906;9.140;2022-07-01T04:29:55;988.17;;;18.86;60.51
45071;BME280;30836;48.906;9.140;2022-07-01T04:30:55;988.19;;;18.88;60.44
45071;BME280;30836;48.906;9.140;2022-07-01T04:31:56;988.23;;;18.88;60.40
45071;BME280;30836;48.906;9.140;2022-07-01T04:32:57;988.27;;;18.87;60.54
45071;BME280;30836;48.906;9.140;2022-07-01T04:33:58;988.27;;;18.86;60.65
45071;BME280;30836;48.906;9.140;2022-07-01T04:34:58;988.27;;;18.88;60.50
45071;BME280;30836;48.906;9.140;2022-07-01T04:35:59;988.29;;;18.95;60.23
45071;BME280;30836;48.906;9.140;2022-07-01T04:36:59;988.29;;;19.00;60.09
45071;BME280;30836;48.906;9.140;2022-07-01T04:38:00;988.27;;;19.02;59.93
45071;BME280;30836;48.906;9.140;2022-07-01T04:39:00;988.29;;;19.07;59.75
45071;BME280;30836;48.906;9.140;2022-07-01T04:40:02;988.27;;;19.14;59.56
45071;BME280;30836;48.906;9.140;2022-07-01T04:41:03;988.27;;;19.22;59.49
45071;BME280;30836;48.906;9.140;2022-07-01T04:42:04;988.29;;;19.25;59.46
45071;BME280;30836;48.906;9.140;2022-07-01T04:43:04;988.27;;;19.26;59.38
45071;BME280;30836;48.906;9.140;2022-07-01T04:44:05;988.27;;;19.23;59.63
45071;BME280;30836;48.906;9.140;2022-07-01T04:45:06;988.27;;;19.18;59.69
45071;BME280;30836;48.906;9.140;2022-07-01T04:46:06;988.27;;;19.16;59.72
45071;BME280;30836;48.906;9.140;2022-07-01T04:47:07;988.31;;;19.19;59.49
45071;BME280;30836;48.906;9.140;2022-07-01T04:48:07;988.33;;;19.27;59.27
45071;BME280;30836;48.906;9.140;2022-07-01T04:49:07;988.35;;;19.30;59.46
45071;BME280;30836;48.906;9.140;2022-07-01T04:50:08;988.37;;;19.27;59.20
45071;BME280;30836;48.906;9.140;2022-07-01T04:51:09;988.37;;;19.27;59.26
45071;BME280;30836;48.906;9.140;2022-07-01T04:52:09;988.35;;;19.29;59.21
45071;BME280;30836;48.906;9.140;2022-07-01T04:53:10;988.35;;;19.33;59.06
45071;BME280;30836;48.906;9.140;2022-07-01T04:54:10;988.37;;;19.37;58.95
45071;BME280;30836;48.906;9.140;2022-07-01T04:55:10;988.33;;;19.37;58.88
45071;BME280;30836;48.906;9.140;2022-07-01T04:56:11;988.33;;;19.29;59.66
45071;BME280;30836;48.906;9.140;2022-07-01T04:57:11;988.33;;;19.13;60.25
45071;BME280;30836;48.906;9.140;2022-07-01T04:58:12;988.37;;;18.98;60.53
45071;BME280;30836;48.906;9.140;2022-07-01T04:59:13;988.35;;;18.84;61.03
45071;BME280;30836;48.906;9.140;2022-07-01T05:00:15;988.35;;;18.77;61.11
45071;BME280;30836;48.906;9.140;2022-07-01T05:01:15;988.37;;;18.72;61.48
45071;BME280;30836;48.906;9.140;2022-07-01T05:02:16;988.37;;;18.65;61.92
45071;BME280;30836;48.906;9.140;2022-07-01T05:03:16;988.37;;;18.53;62.38
45071;BME280;30836;48.906;9.140;2022-07-01T05:04:18;988.35;;;18.41;62.53
45071;BME280;30836;48.906;9.140;2022-07-01T05:05:19;988.37;;;18.36;62.63
45071;BME280;30836;48.906;9.140;2022-07-01T05:06:19;988.37;;;18.33;62.63
45071;BME280;30836;48.906;9.140;2022-07-01T05:07:20;988.33;;;18.28;62.92
45071;BME280;30836;48.906;9.140;2022-07-01T05:08:20;988.35;;;18.21;63.17
45071;BME280;30836;48.906;9.140;2022-07-01T05:09:20;988.29;;;18.12;63.12
45071;BME280;30836;48.906;9.140;2022-07-01T05:10:21;988.29;;;18.05;63.21
45071;BME280;30836;48.906;9.140;2022-07-01T05:11:21;988.25;;;18.00;63.40
45071;BME280;30836;48.906;9.140;2022-07-01T05:12:22;988.27;;;17.90;64.16
45071;BME280;30836;48.906;9.140;2022-07-01T05:13:23;988.29;;;17.77;64.28
45071;BME280;30836;48.906;9.140;2022-07-01T05:14:23;988.29;;;17.70;64.52
45071;BME280;30836;48.906;9.140;2022-07-01T05:15:24;988.31;;;17.63;64.54
45071;BME280;30836;48.906;9.140;2022-07-01T05:16:24;988.37;;;17.63;64.50
45071;BME280;30836;48.906;9.140;2022-07-01T05:17:24;988.35;;;17.64;64.60
45071;BME280;30836;48.906;9.140;2022-07-01T05:18:25;988.35;;;17.64;64.58
45071;BME280;30836;48.906;9.140;2022-07-01T05:19:26;988.39;;;17.64;64.66
45071;BME280;30836;48.906;9.140;2022-07-01T05:20:26;988.41;;;17.64;64.71
45071;BME280;30836;48.906;9.140;2022-07-01T05:21:26;988.39;;;17.65;64.65
45071;BME280;30836;48.906;9.140;2022-07-01T05:22:27;988.41;;;17.65;64.74
45071;BME280;30836;48.906;9.140;2022-07-01T05:23:27;988.39;;;17.64;65.00
45071;BME280;30836;48.906;9.140;2022-07-01T05:24:29;988.39;;;17.65;64.91
45071;BME280;30836;48.906;9.140;2022-07-01T05:25:31;988.39;;;17.68;64.83
45071;BME280;30836;48.906;9.140;2022-07-01T05:26:31;988.41;;;17.74;64.58
45071;BME280;30836;48.906;9.140;2022-07-01T05:27:32;988.39;;;17.78;64.66
45071;BME280;30836;48.906;9.140;2022-07-01T05:28:32;988.41;;;17.76;64.89
45071;BME280;30836;48.906;9.140;2022-07-01T05:29:33;988.37;;;17.72;65.06
45071;BME280;30836;48.906;9.140;2022-07-01T05:30:33;988.37;;;17.69;64.97
45071;BME280;30836;48.906;9.140;2022-07-01T05:31:34;988.39;;;17.68;64.92